Time;durP1;ratioP1;P1;durP2;ratioP2;P2;SDS_P1;SDS_P2;PMS_P1;PMS_P2;Temp;Humidity;BMP_temperature;BMP_pressure;BME280_temperature;BME280_humidity;BME280_pressure;Samples;Min_cycle;Max_cycle;Signal;HPM_P1;HPM_P2
2021/07/04 00:01:44;;;;;;;5.03;4.53;;;19.90;90.50;;;;;;6252960;28;20438;-78
2021/07/04 00:04:47;;;;;;;6.78;5.18;;;20.00;90.50;;;;;;6253118;28;20447;-77
2021/07/04 00:07:49;;;;;;;5.60;5.03;;;19.80;90.70;;;;;;6251565;28;20420;-78
2021/07/04 00:10:53;;;;;;;5.68;4.90;;;20.00;90.90;;;;;;6252444;28;20773;-77
2021/07/04 00:13:55;;;;;;;5.15;4.65;;;19.70;91.20;;;;;;6252102;28;20461;-77
2021/07/04 00:16:57;;;;;;;6.38;5.38;;;19.50;91.10;;;;;;6252292;28;20435;-77
2021/07/04 00:20:01;;;;;;;6.25;5.30;;;19.70;91.50;;;;;;6249692;28;20485;-76
2021/07/04 00:23:03;;;;;;;8.05;5.45;;;19.60;91.70;;;;;;6250979;28;20415;-77
2021/07/04 00:26:06;;;;;;;5.10;4.60;;;19.90;91.90;;;;;;6251112;28;20859;-77
2021/07/04 00:29:08;;;;;;;7.32;5.40;;;19.90;92.00;;;;;;6252134;28;20527;-78
2021/07/04 00:32:10;;;;;;;8.13;5.20;;;19.60;92.20;;;;;;6251635;28;20442;-77
2021/07/04 00:35:15;;;;;;;6.82;5.25;;;19.40;92.60;;;;;;6251506;28;20427;-77
2021/07/04 00:38:17;;;;;;;6.13;5.47;;;19.40;92.80;;;;;;6251259;28;20468;-76
2021/07/04 00:41:19;;;;;;;5.97;5.25;;;19.40;93.20;;;;;;6251837;28;20462;-77
2021/07/04 00:44:21;;;;;;;6.60;5.27;;;19.40;93.10;;;;;;6251858;28;20608;-78
2021/07/04 00:47:23;;;;;;;6.43;5.82;;;19.50;93.00;;;;;;6250743;28;20762;-77
2021/07/04 00:50:28;;;;;;;6.40;5.30;;;19.30;93.30;;;;;;6251219;28;20486;-77
2021/07/04 00:53:30;;;;;;;6.63;5.45;;;19.30;93.50;;;;;;6251509;28;20593;-77
2021/07/04 00:56:32;;;;;;;7.18;5.65;;;19.20;93.50;;;;;;6250933;28;20438;-78
2021/07/04 00:59:35;;;;;;;6.90;5.30;;;19.20;93.70;;;;;;6249833;28;20422;-78
2021/07/04 01:02:37;;;;;;;6.47;5.78;;;19.30;93.80;;;;;;6251411;28;20919;-78
2021/07/04 01:05:43;;;;;;;6.43;5.78;;;19.30;93.60;;;;;;6250808;28;20573;-77
2021/07/04 01:08:45;;;;;;;7.57;6.03;;;19.40;93.70;;;;;;6250366;28;20506;-77
2021/07/04 01:11:47;;;;;;;11.77;5.85;;;19.30;93.60;;;;;;6250900;28;20423;-77
2021/07/04 01:14:50;;;;;;;6.18;5.20;;;19.60;94.10;;;;;;6250427;28;20430;-78
2021/07/04 01:17:52;;;;;;;7.80;5.53;;;19.40;93.80;;;;;;6249124;28;20518;-78
2021/07/04 01:20:58;;;;;;;6.53;5.93;;;19.50;93.60;;;;;;6251116;28;20462;-78
2021/07/04 01:24:01;;;;;;;6.07;5.50;;;19.60;93.70;;;;;;6250391;28;20788;-78
2021/07/04 01:27:04;;;;;;;6.85;6.00;;;19.70;93.60;;;;;;6250079;28;20980;-77
2021/07/04 01:30:08;;;;;;;6.40;5.80;;;19.90;93.20;;;;;;6250596;28;20451;-78
2021/07/04 01:33:10;;;;;;;7.05;6.10;;;19.80;93.30;;;;;;6255783;28;20880;-76
2021/07/04 01:36:12;;;;;;;10.38;5.60;;;19.90;93.20;;;;;;6254551;28;20439;-77
2021/07/04 01:39:15;;;;;;;6.55;5.32;;;19.90;93.20;;;;;;6249633;28;20419;-76
2021/07/04 01:42:17;;;;;;;5.97;5.15;;;19.90;93.00;;;;;;6250490;28;20489;-77
2021/07/04 01:45:20;;;;;;;7.18;5.45;;;20.00;93.10;;;;;;6250774;28;20463;-77
2021/07/04 01:48:22;;;;;;;6.05;5.45;;;20.00;93.30;;;;;;6249607;28;20418;-77
2021/07/04 01:51:24;;;;;;;6.43;5.43;;;20.00;93.60;;;;;;6249708;28;20502;-77
2021/07/04 01:54:27;;;;;;;10.65;6.00;;;20.00;93.40;;;;;;6250139;28;21009;-77
2021/07/04 01:57:29;;;;;;;5.40;4.78;;;20.10;93.70;;;;;;6249277;28;20481;-77
2021/07/04 02:00:33;;;;;;;5.60;5.10;;;20.00;93.80;;;;;;6249434;28;20415;-77
2021/07/04 02:03:35;;;;;;;6.10;5.50;;;20.00;93.50;;;;;;6250071;28;20481;-77
2021/07/04 02:06:37;;;;;;;9.95;5.63;;;19.90;93.50;;;;;;6248454;28;20886;-76
2021/07/04 02:09:44;;;;;;;5.50;5.00;;;20.00;93.90;;;;;;6249622;28;20533;-76
2021/07/04 02:12:46;;;;;;;5.63;5.00;;;20.00;94.20;;;;;;6249808;28;20801;-77
2021/07/04 02:15:48;;;;;;;7.60;5.38;;;19.90;94.40;;;;;;6249346;28;20419;-77
2021/07/04 02:18:51;;;;;;;5.55;4.97;;;19.80;94.60;;;;;;6249295;28;20447;-77
2021/07/04 02:21:53;;;;;;;10.23;5.78;;;19.90;94.50;;;;;;6249816;28;20435;-77
2021/07/04 02:24:57;;;;;;;7.85;5.82;;;20.00;94.70;;;;;;6249527;28;20437;-76
2021/07/04 02:27:59;;;;;;;5.38;4.72;;;19.80;94.80;;;;;;6248711;28;20998;-77
2021/07/04 02:31:01;;;;;;;6.22;5.63;;;19.90;95.00;;;;;;6248610;28;20461;-78
2021/07/04 02:34:03;;;;;;;6.65;5.32;;;19.70;94.80;;;;;;6248412;28;20847;-77
2021/07/04 02:37:05;;;;;;;6.83;6.00;;;19.70;94.80;;;;;;6249085;28;20524;-77
2021/07/04 02:40:09;;;;;;;5.80;5.30;;;19.60;95.20;;;;;;6249237;28;20502;-77
2021/07/04 02:43:14;;;;;;;5.78;5.28;;;19.60;95.00;;;;;;6248967;28;20864;-77
2021/07/04 02:46:16;;;;;;;6.53;5.93;;;19.50;95.20;;;;;;6249050;28;20476;-77
2021/07/04 02:49:18;;;;;;;5.50;5.00;;;19.60;95.10;;;;;;6253826;28;20573;-77
2021/07/04 02:52:20;;;;;;;5.85;5.25;;;19.70;95.20;;;;;;6254118;28;20482;-77
2021/07/04 02:55:24;;;;;;;6.63;5.90;;;19.60;94.80;;;;;;6253186;28;20496;-77
2021/07/04 02:58:26;;;;;;;6.65;6.05;;;19.70;94.90;;;;;;6252649;28;20526;-77
2021/07/04 03:01:28;;;;;;;6.17;5.67;;;19.70;95.00;;;;;;6253913;28;20557;-77
2021/07/04 03:04:30;;;;;;;6.15;5.63;;;19.60;94.30;;;;;;6253330;28;20560;-77
2021/07/04 03:07:31;;;;;;;6.20;5.60;;;19.80;94.50;;;;;;6252907;28;20411;-77
2021/07/04 03:10:35;;;;;;;7.22;5.30;;;19.90;94.70;;;;;;6253010;28;20469;-76
2021/07/04 03:13:37;;;;;;;6.20;5.65;;;20.10;94.60;;;;;;6253435;28;20468;-78
2021/07/04 03:16:39;;;;;;;5.70;5.20;;;20.00;94.70;;;;;;6253061;28;20415;-78
2021/07/04 03:19:41;;;;;;;12.70;5.83;;;20.20;94.50;;;;;;6253531;28;20450;-77
2021/07/04 03:22:43;;;;;;;6.53;5.32;;;20.30;94.70;;;;;;6253645;28;20422;-77
2021/07/04 03:25:46;;;;;;;5.95;5.30;;;20.20;94.50;;;;;;6253483;28;20611;-77
2021/07/04 03:28:48;;;;;;;7.33;6.57;;;20.00;94.50;;;;;;6253635;28;20515;-76
2021/07/04 03:31:50;;;;;;;7.60;6.07;;;20.10;94.40;;;;;;6250470;28;20497;-76
2021/07/04 03:34:52;;;;;;;7.20;5.80;;;20.00;94.60;;;;;;6248585;28;21208;-76
2021/07/04 03:37:54;;;;;;;6.13;5.57;;;20.00;94.60;;;;;;6247889;28;20485;-76
2021/07/04 03:40:58;;;;;;;6.93;5.30;;;20.30;94.70;;;;;;6249647;28;20427;-77
2021/07/04 03:44:00;;;;;;;6.50;5.10;;;20.30;94.80;;;;;;6248667;28;20498;-76
2021/07/04 03:47:02;;;;;;;7.15;6.15;;;20.30;94.80;;;;;;6248478;28;20445;-76
2021/07/04 03:50:05;;;;;;;7.55;6.07;;;20.10;94.90;;;;;;6248395;28;20489;-76
2021/07/04 03:53:06;;;;;;;8.07;6.32;;;20.20;94.80;;;;;;6248986;28;20441;-76
2021/07/04 03:56:10;;;;;;;6.03;5.50;;;20.50;95.10;;;;;;6247791;28;20446;-77
2021/07/04 03:59:11;;;;;;;7.43;5.85;;;20.40;94.70;;;;;;6248240;28;20419;-76
2021/07/04 04:02:13;;;;;;;6.80;6.00;;;20.30;94.60;;;;;;6248364;28;20411;-75
2021/07/04 04:05:15;;;;;;;5.67;5.17;;;20.50;94.50;;;;;;6247759;28;20438;-76
2021/07/04 04:08:17;;;;;;;5.40;4.90;;;20.40;94.40;;;;;;6247151;28;20882;-76
2021/07/04 04:11:20;;;;;;;7.10;5.53;;;20.50;94.30;;;;;;6247906;28;20569;-77
2021/07/04 04:14:22;;;;;;;6.03;5.27;;;20.50;94.20;;;;;;6248222;28;20415;-75
2021/07/04 04:17:24;;;;;;;6.38;5.70;;;20.70;94.30;;;;;;6248026;28;20466;-77
2021/07/04 04:20:25;;;;;;;8.90;5.60;;;20.70;93.90;;;;;;6247645;28;20419;-77
2021/07/04 04:23:27;;;;;;;7.18;5.30;;;20.70;94.00;;;;;;6247761;28;20496;-77
2021/07/04 04:26:30;;;;;;;5.97;5.37;;;20.70;94.80;;;;;;6247260;28;20825;-76
2021/07/04 04:29:32;;;;;;;6.90;6.03;;;20.80;96.20;;;;;;6247316;28;20969;-76
2021/07/04 04:32:34;;;;;;;7.33;6.73;;;21.20;97.10;;;;;;6246999;28;20545;-76
2021/07/04 04:35:36;;;;;;;7.53;6.10;;;21.00;95.50;;;;;;6246460;28;20940;-74
2021/07/04 04:38:38;;;;;;;6.30;5.70;;;21.20;94.30;;;;;;6247124;28;20423;-76
2021/07/04 04:41:41;;;;;;;6.70;5.90;;;21.10;93.10;;;;;;6247807;28;20958;-76
2021/07/04 04:44:43;;;;;;;6.22;5.45;;;21.30;93.10;;;;;;6248999;28;20502;-76
2021/07/04 04:47:45;;;;;;;6.72;6.07;;;21.40;92.90;;;;;;6247881;28;20485;-77
2021/07/04 04:50:47;;;;;;;6.67;5.97;;;21.40;92.80;;;;;;6247347;28;20841;-77
2021/07/04 04:53:49;;;;;;;10.10;5.85;;;21.60;92.60;;;;;;6247690;28;20470;-76
2021/07/04 04:56:52;;;;;;;7.57;6.60;;;21.70;92.20;;;;;;6247661;28;20828;-77
2021/07/04 04:59:54;;;;;;;8.13;5.90;;;21.90;92.10;;;;;;6247755;28;20501;-75
2021/07/04 05:02:55;;;;;;;6.50;5.78;;;22.10;91.70;;;;;;6246451;28;20494;-76
2021/07/04 05:05:57;;;;;;;5.70;5.13;;;22.20;91.00;;;;;;6268866;23;21667;-77
2021/07/04 05:08:59;;;;;;;7.40;6.57;;;22.20;90.80;;;;;;6271526;28;20468;-78
2021/07/04 05:12:03;;;;;;;15.63;5.75;;;22.20;91.00;;;;;;6252793;28;20497;-78
2021/07/04 05:15:07;;;;;;;6.75;5.93;;;22.10;91.20;;;;;;6246147;28;20894;-79
2021/07/04 05:18:09;;;;;;;6.13;5.63;;;22.10;91.20;;;;;;6246110;28;20434;-80
2021/07/04 05:21:11;;;;;;;7.20;5.93;;;22.00;91.20;;;;;;6247451;28;20986;-79
2021/07/04 05:24:13;;;;;;;8.10;6.20;;;21.90;91.50;;;;;;6246063;28;20506;-78
2021/07/04 05:27:16;;;;;;;6.60;5.43;;;21.90;91.50;;;;;;6245948;28;20549;-79
2021/07/04 05:30:18;;;;;;;6.38;5.43;;;21.90;91.50;;;;;;6246393;28;20457;-78
2021/07/04 05:33:20;;;;;;;6.90;6.20;;;22.00;91.30;;;;;;6246611;28;20439;-77
2021/07/04 05:36:22;;;;;;;7.15;5.32;;;22.10;91.10;;;;;;6246052;28;20498;-78
2021/07/04 05:39:26;;;;;;;5.97;4.85;;;22.20;90.80;;;;;;6246116;28;20477;-78
2021/07/04 05:42:29;;;;;;;5.53;5.03;;;22.50;90.20;;;;;;6245708;28;20777;-78
2021/07/04 05:45:31;;;;;;;6.18;5.57;;;22.60;88.90;;;;;;6246671;28;20522;-77
2021/07/04 05:48:35;;;;;;;10.17;5.40;;;22.80;89.00;;;;;;6245787;28;20965;-77
2021/07/04 05:51:37;;;;;;;8.30;5.25;;;23.00;87.90;;;;;;6245550;28;20867;-77
2021/07/04 05:54:38;;;;;;;7.33;5.60;;;23.20;87.10;;;;;;6245871;28;20496;-78
2021/07/04 05:57:42;;;;;;;7.68;5.57;;;23.40;85.80;;;;;;6245621;28;20521;-78
2021/07/04 06:00:44;;;;;;;6.47;5.78;;;23.50;84.70;;;;;;6245473;28;20442;-78
2021/07/04 06:03:45;;;;;;;5.60;5.10;;;23.50;84.50;;;;;;6240313;28;20481;-78
2021/07/04 06:06:47;;;;;;;6.72;5.78;;;23.40;84.60;;;;;;6241073;28;20542;-78
2021/07/04 06:09:49;;;;;;;7.95;5.05;;;23.40;84.90;;;;;;6246199;28;20435;-77
2021/07/04 06:12:52;;;;;;;6.70;6.00;;;23.40;85.20;;;;;;6270566;28;20538;-78
2021/07/04 06:15:54;;;;;;;7.65;5.75;;;23.40;85.30;;;;;;6270043;28;20429;-77
2021/07/04 06:18:56;;;;;;;6.55;5.90;;;23.50;85.20;;;;;;6270082;28;20441;-78
2021/07/04 06:21:58;;;;;;;7.63;5.97;;;23.60;85.20;;;;;;6266246;28;20431;-78
2021/07/04 06:25:00;;;;;;;7.20;5.77;;;23.70;84.90;;;;;;6248968;28;20446;-78
2021/07/04 06:28:04;;;;;;;5.63;5.13;;;23.70;84.90;;;;;;6250029;28;20492;-79
2021/07/04 06:31:06;;;;;;;6.00;5.22;;;23.70;85.10;;;;;;6250412;28;20483;-78
2021/07/04 06:34:07;;;;;;;9.10;5.47;;;23.60;85.20;;;;;;6250310;28;20522;-77
2021/07/04 06:37:09;;;;;;;5.75;5.15;;;23.70;84.80;;;;;;6250415;28;20469;-79
2021/07/04 06:40:12;;;;;;;6.40;5.80;;;23.90;83.90;;;;;;6251107;28;20598;-79
2021/07/04 06:43:15;;;;;;;6.77;6.00;;;24.00;82.70;;;;;;6250434;28;20458;-77
2021/07/04 06:46:17;;;;;;;6.25;5.65;;;24.30;81.10;;;;;;6250214;28;20434;-79
2021/07/04 06:49:19;;;;;;;7.70;5.32;;;24.50;80.40;;;;;;6250594;28;20437;-78
2021/07/04 06:52:21;;;;;;;7.25;5.10;;;24.60;80.40;;;;;;6250478;28;20497;-79
2021/07/04 06:55:22;;;;;;;6.60;5.20;;;24.50;80.60;;;;;;6250590;28;20488;-78
2021/07/04 06:58:25;;;;;;;6.25;5.53;;;24.60;80.00;;;;;;6250424;28;20437;-78
2021/07/04 07:01:27;;;;;;;5.45;4.95;;;24.70;79.90;;;;;;6252015;28;20438;-79
2021/07/04 07:04:29;;;;;;;6.20;5.60;;;24.70;79.10;;;;;;6251724;28;21008;-81
2021/07/04 07:07:31;;;;;;;6.30;5.32;;;24.60;79.20;;;;;;6252072;28;20419;-79
2021/07/04 07:10:33;;;;;;;6.18;5.45;;;24.80;78.90;;;;;;6252209;28;20621;-78
2021/07/04 07:13:36;;;;;;;6.20;5.70;;;24.90;78.10;;;;;;6251298;28;20443;-77
2021/07/04 07:16:38;;;;;;;7.13;5.47;;;25.10;77.80;;;;;;6250245;28;20414;-77
2021/07/04 07:19:40;;;;;;;6.85;4.85;;;25.10;77.30;;;;;;6250869;28;20502;-77
2021/07/04 07:22:42;;;;;;;6.18;5.53;;;25.20;76.90;;;;;;6251792;28;20469;-78
2021/07/04 07:25:44;;;;;;;13.23;5.67;;;25.40;76.30;;;;;;6258019;28;21122;-77
2021/07/04 07:28:47;;;;;;;6.37;4.60;;;25.70;74.90;;;;;;6224753;28;21057;-77
2021/07/04 07:31:49;;;;;;;5.35;4.72;;;26.00;73.80;;;;;;6224540;28;20548;-77
2021/07/04 07:34:51;;;;;;;5.47;4.95;;;26.70;74.40;;;;;;6231233;28;20488;-77
2021/07/04 07:37:55;;;;;;;5.43;4.95;;;27.00;70.00;;;;;;6248728;28;20555;-77
2021/07/04 07:40:57;;;;;;;5.53;4.83;;;27.20;82.40;;;;;;6225669;28;20885;-78
2021/07/04 07:44:00;;;;;;;6.00;4.93;;;27.50;72.80;;;;;;6243021;28;20507;-77
2021/07/04 07:47:02;;;;;;;4.93;4.53;;;27.40;69.40;;;;;;6249230;28;20497;-79
2021/07/04 07:50:06;;;;;;;5.15;4.72;;;27.50;67.60;;;;;;6249033;28;20526;-78
2021/07/04 07:53:07;;;;;;;7.15;4.80;;;28.20;73.10;;;;;;6250327;28;20521;-78
2021/07/04 07:56:09;;;;;;;5.20;4.68;;;28.90;67.60;;;;;;6249801;28;20416;-78
2021/07/04 07:59:13;;;;;;;5.63;4.63;;;29.50;65.40;;;;;;6250460;28;20529;-78
2021/07/04 08:02:16;;;;;;;7.40;4.85;;;28.90;67.00;;;;;;6250980;28;20431;-79
2021/07/04 08:05:18;;;;;;;5.07;4.43;;;28.20;74.10;;;;;;6251040;28;20430;-78
2021/07/04 08:08:19;;;;;;;4.75;4.30;;;27.90;73.50;;;;;;6249980;28;20454;-77
2021/07/04 08:11:21;;;;;;;5.40;4.50;;;27.80;70.40;;;;;;6250217;28;20415;-78
2021/07/04 08:14:24;;;;;;;4.95;4.53;;;28.00;69.70;;;;;;6251007;28;20490;-78
2021/07/04 08:17:26;;;;;;;4.88;4.38;;;28.10;64.80;;;;;;6250681;28;20908;-78
2021/07/04 08:20:28;;;;;;;6.20;4.43;;;28.40;66.20;;;;;;6250423;28;20422;-79
2021/07/04 08:23:30;;;;;;;5.35;4.85;;;28.30;64.00;;;;;;6250655;28;20430;-79
2021/07/04 08:26:32;;;;;;;8.88;4.82;;;28.40;63.30;;;;;;6264987;28;20547;-79
2021/07/04 08:29:35;;;;;;;4.70;4.23;;;28.00;62.40;;;;;;6276136;28;20641;-79
2021/07/04 08:32:37;;;;;;;5.47;4.60;;;27.90;64.70;;;;;;6274133;28;20453;-77
2021/07/04 08:35:39;;;;;;;5.85;4.35;;;27.80;64.10;;;;;;6274176;28;20571;-77
2021/07/04 08:38:41;;;;;;;6.15;4.18;;;28.00;63.00;;;;;;6275884;28;20499;-78
2021/07/04 08:41:43;;;;;;;5.35;4.30;;;28.40;65.70;;;;;;6274462;28;20522;-78
2021/07/04 08:44:51;;;;;;;6.43;4.55;;;28.70;66.30;;;;;;6272808;28;20471;-78
2021/07/04 08:47:53;;;;;;;6.10;5.50;;;28.70;66.20;;;;;;6273211;28;20833;-78
2021/07/04 08:50:55;;;;;;;5.57;5.07;;;28.40;64.60;;;;;;6272592;28;20551;-78
2021/07/04 08:53:57;;;;;;;7.78;5.47;;;28.10;61.50;;;;;;6273369;28;20429;-77
2021/07/04 08:56:58;;;;;;;5.95;5.22;;;27.70;62.80;;;;;;6272333;28;20484;-79
2021/07/04 09:00:04;;;;;;;5.60;5.00;;;27.40;65.10;;;;;;6272004;28;20413;-78
2021/07/04 09:03:24;;;;;;;5.63;4.45;;;27.50;65.80;;;;;;6271415;28;20464;-77
2021/07/04 09:06:41;;;;;;;6.50;5.05;;;27.10;67.40;;;;;;6271710;28;20416;-78
2021/07/04 09:09:42;;;;;;;6.00;5.43;;;27.00;69.40;;;;;;6273102;28;20791;-78
2021/07/04 09:12:47;;;;;;;5.43;4.93;;;27.00;73.50;;;;;;6271790;28;20946;-78
2021/07/04 09:16:04;;;;;;;5.32;4.57;;;26.80;72.60;;;;;;6272752;28;20502;-78
2021/07/04 09:19:10;;;;;;;5.75;4.95;;;26.90;73.00;;;;;;6271705;28;20486;-77
2021/07/04 09:22:12;;;;;;;5.65;5.15;;;27.00;74.30;;;;;;6262275;28;20779;-77
2021/07/04 09:25:16;;;;;;;5.20;4.50;;;27.10;74.20;;;;;;6252811;28;20510;-78
2021/07/04 09:28:19;;;;;;;5.30;4.80;;;27.20;74.20;;;;;;6254751;28;20928;-77
2021/07/04 09:31:22;;;;;;;5.13;4.65;;;27.20;73.10;;;;;;6259460;28;20975;-78
2021/07/04 09:34:24;;;;;;;4.83;4.30;;;27.20;73.80;;;;;;6259581;28;20417;-79
2021/07/04 09:37:35;;;;;;;6.17;5.57;;;27.20;73.80;;;;;;6257103;28;20439;-78
2021/07/04 09:40:39;;;;;;;5.60;5.00;;;27.20;74.30;;;;;;6259291;28;20565;-78
2021/07/04 09:43:41;;;;;;;7.18;5.53;;;27.30;76.60;;;;;;6256769;28;20496;-78
2021/07/04 09:46:44;;;;;;;5.20;4.75;;;27.10;78.80;;;;;;6271027;28;20490;-78
2021/07/04 09:49:47;;;;;;;5.47;4.68;;;27.00;79.10;;;;;;6271822;28;20518;-78
2021/07/04 09:53:00;;;;;;;5.13;4.63;;;26.60;69.40;;;;;;6271404;28;20937;-78
2021/07/04 09:56:09;;;;;;;5.13;4.60;;;26.50;68.90;;;;;;6270461;28;20821;-78
2021/07/04 09:59:22;;;;;;;7.15;4.78;;;26.60;69.90;;;;;;6270451;28;20487;-78
2021/07/04 10:02:25;;;;;;;6.65;4.10;;;26.70;68.80;;;;;;6272084;28;20417;-78
2021/07/04 10:05:27;;;;;;;6.78;4.88;;;26.80;66.30;;;;;;6271230;28;20539;-78
2021/07/04 10:08:32;;;;;;;6.90;4.93;;;26.70;65.10;;;;;;6246521;28;20434;-79
2021/07/04 10:11:34;;;;;;;5.27;4.77;;;26.40;66.40;;;;;;6247252;28;20565;-79
2021/07/04 10:14:37;;;;;;;6.40;4.72;;;26.00;68.30;;;;;;6247481;28;20505;-78
2021/07/04 10:17:43;;;;;;;6.25;5.68;;;25.70;70.50;;;;;;6247441;28;20900;-78
2021/07/04 10:20:45;;;;;;;7.45;5.18;;;25.50;72.20;;;;;;6247287;28;20856;-78
2021/07/04 10:23:48;;;;;;;6.85;5.40;;;25.40;77.50;;;;;;6246071;28;20585;-77
2021/07/04 10:26:51;;;;;;;7.13;5.53;;;25.20;81.20;;;;;;6236588;28;20908;-77
2021/07/04 10:29:53;;;;;;;6.22;5.63;;;25.20;79.80;;;;;;6235700;28;20867;-78
2021/07/04 10:33:15;;;;;;;8.18;6.30;;;25.00;79.90;;;;;;6247847;28;20458;-78
2021/07/04 10:36:20;;;;;;;5.88;5.32;;;24.70;80.00;;;;;;6238732;28;20519;-78
2021/07/04 10:39:22;;;;;;;6.00;5.40;;;24.50;80.90;;;;;;6247948;28;20911;-78
2021/07/04 10:42:37;;;;;;;6.15;5.57;;;24.30;83.50;;;;;;6248093;28;20887;-79
2021/07/04 10:45:41;;;;;;;6.13;5.57;;;24.20;82.90;;;;;;6247147;28;20434;-78
2021/07/04 10:48:55;;;;;;;6.55;5.32;;;24.20;83.30;;;;;;6246600;28;20760;-78
2021/07/04 10:51:58;;;;;;;6.50;5.82;;;24.20;84.20;;;;;;6246761;28;20415;-78
2021/07/04 10:55:03;;;;;;;6.05;5.45;;;24.10;84.60;;;;;;6246488;28;20506;-79
2021/07/04 10:58:05;;;;;;;6.63;5.83;;;24.00;86.70;;;;;;6246081;28;20435;-78
2021/07/04 11:01:07;;;;;;;7.13;5.28;;;23.80;86.10;;;;;;6246566;28;20536;-78
2021/07/04 11:04:47;;;;;;;4.15;3.05;;;23.50;87.00;;;;;;6245226;28;20498;-78
2021/07/04 11:08:10;;;;;;;4.38;3.97;;;23.10;84.60;;;;;;6220984;23;20449;-74
2021/07/04 11:11:13;;;;;;;6.63;4.63;;;22.60;90.20;;;;;;6200249;28;20434;-77
2021/07/04 11:14:15;;;;;;;8.75;5.30;;;21.90;96.60;;;;;;6184344;28;20488;-77
2021/07/04 11:17:17;;;;;;;9.95;7.05;;;21.00;97.50;;;;;;6176251;28;20525;-78
2021/07/04 11:20:19;;;;;;;17.03;8.47;;;20.70;99.90;;;;;;6176180;28;21000;-79
2021/07/04 11:23:24;;;;;;;13.40;8.15;;;20.40;99.90;;;;;;6175723;28;20976;-78
2021/07/04 11:26:26;;;;;;;8.37;6.30;;;20.20;99.90;;;;;;6178427;28;20513;-78
2021/07/04 11:29:28;;;;;;;8.93;6.57;;;20.10;99.90;;;;;;6211638;28;20516;-77
2021/07/04 11:32:30;;;;;;;12.13;7.18;;;20.10;99.90;;;;;;6225266;28;20435;-78
2021/07/04 11:35:41;;;;;;;24.90;13.05;;;20.10;99.90;;;;;;6227583;28;20459;-77
2021/07/04 11:38:47;;;;;;;8.70;6.68;;;20.20;99.90;;;;;;6226109;28;20569;-78
2021/07/04 11:41:53;;;;;;;12.82;7.75;;;20.10;99.90;;;;;;6224947;28;20516;-77
2021/07/04 11:44:55;;;;;;;11.90;7.38;;;20.00;99.90;;;;;;6224748;28;20445;-77
2021/07/04 11:48:16;;;;;;;15.17;10.23;;;20.00;99.90;;;;;;6226085;28;20568;-77
2021/07/04 11:51:27;;;;;;;13.63;8.88;;;20.10;99.90;;;;;;6226398;28;20420;-77
2021/07/04 11:54:32;;;;;;;10.85;7.85;;;20.20;99.90;;;;;;6224620;28;20570;-77
2021/07/04 11:57:35;;;;;;;9.68;8.25;;;20.20;99.90;;;;;;6224487;28;20495;-77
2021/07/04 12:00:37;;;;;;;19.23;11.63;;;20.10;99.90;;;;;;6224760;28;20424;-77
2021/07/04 12:03:40;;;;;;;9.65;7.65;;;20.20;99.90;;;;;;6226126;28;20499;-77
2021/07/04 12:06:59;;;;;;;12.77;8.65;;;20.30;99.90;;;;;;6227406;28;20498;-78
2021/07/04 12:10:02;;;;;;;8.30;7.50;;;21.90;99.90;;;;;;6224106;28;20491;-76
2021/07/04 12:13:04;;;;;;;9.90;7.70;;;20.70;99.90;;;;;;6216949;28;20903;-76
2021/07/04 12:16:06;;;;;;;13.63;9.43;;;20.90;99.90;;;;;;6198124;28;20471;-77
2021/07/04 12:19:08;;;;;;;8.82;6.45;;;21.20;99.90;;;;;;6197605;28;20422;-77
2021/07/04 12:22:12;;;;;;;7.85;6.40;;;21.70;99.90;;;;;;6198125;28;20430;-76
2021/07/04 12:25:18;;;;;;;6.22;5.50;;;22.00;99.90;;;;;;6197039;28;21002;-76
2021/07/04 12:28:22;;;;;;;10.68;8.40;;;22.30;99.90;;;;;;6198960;28;20423;-76
2021/07/04 12:31:24;;;;;;;7.13;5.60;;;22.50;99.90;;;;;;6220305;28;20922;-77
2021/07/04 12:34:25;;;;;;;6.50;5.00;;;22.70;99.90;;;;;;6221673;28;20495;-77
2021/07/04 12:37:28;;;;;;;5.20;4.47;;;22.80;99.90;;;;;;6221343;28;20520;-76
2021/07/04 12:40:34;;;;;;;4.57;4.17;;;23.00;99.90;;;;;;6221838;28;20623;-77
2021/07/04 12:43:38;;;;;;;5.70;4.97;;;23.10;99.90;;;;;;6221964;28;20427;-77
2021/07/04 12:46:40;;;;;;;4.90;4.40;;;23.10;99.90;;;;;;6220965;28;20456;-77
2021/07/04 12:49:42;;;;;;;4.75;4.35;;;23.40;99.90;;;;;;6221615;28;20444;-77
2021/07/04 12:52:58;;;;;;;5.80;5.30;;;23.60;99.90;;;;;;6222578;28;20552;-77
2021/07/04 12:56:01;;;;;;;5.32;4.80;;;23.60;99.90;;;;;;6223100;28;20421;-78
2021/07/04 12:59:05;;;;;;;5.10;4.60;;;23.90;99.90;;;;;;6228722;28;20569;-77
2021/07/04 13:02:06;;;;;;;5.32;4.82;;;24.10;99.90;;;;;;6245761;28;20581;-77
2021/07/04 13:05:09;;;;;;;5.67;4.23;;;24.10;99.90;;;;;;6246462;28;20529;-77
2021/07/04 13:08:12;;;;;;;5.30;4.80;;;24.50;99.90;;;;;;6229391;28;20496;-78
2021/07/04 13:11:19;;;;;;;6.20;5.60;;;24.70;99.90;;;;;;6224453;28;20417;-77
2021/07/04 13:14:21;;;;;;;5.77;4.40;;;;;;;;;;6210698;28;20890;-77
2021/07/04 13:17:25;;;;;;;4.70;4.25;;;25.30;99.90;;;;;;6233197;28;20464;-77
2021/07/04 13:20:27;;;;;;;4.57;4.18;;;25.40;95.70;;;;;;6216305;28;20454;-77
2021/07/04 13:23:29;;;;;;;5.28;4.38;;;25.70;95.30;;;;;;6198872;28;20477;-77
2021/07/04 13:26:36;;;;;;;5.65;4.13;;;25.90;95.20;;;;;;6198158;28;20448;-77
2021/07/04 13:29:41;;;;;;;4.07;3.67;;;26.20;93.00;;;;;;6201975;28;20432;-77
2021/07/04 13:32:52;;;;;;;4.50;4.10;;;26.70;89.60;;;;;;6221519;28;20478;-77
2021/07/04 13:35:54;;;;;;;7.72;4.45;;;27.10;86.50;;;;;;6222976;28;20783;-78
2021/07/04 13:38:57;;;;;;;5.43;3.70;;;27.30;84.60;;;;;;6223371;28;20503;-77
2021/07/04 13:42:00;;;;;;;3.88;3.58;;;27.40;81.00;;;;;;6223984;28;20482;-77
2021/07/04 13:45:05;;;;;;;3.72;3.42;;;27.60;77.00;;;;;;6224834;28;20917;-78
2021/07/04 13:48:12;;;;;;;4.57;4.18;;;27.60;77.40;;;;;;6224212;28;20424;-77
2021/07/04 13:51:14;;;;;;;4.18;3.80;;;27.80;76.20;;;;;;6224442;28;20471;-78
2021/07/04 13:54:16;;;;;;;3.78;3.47;;;27.90;74.30;;;;;;6223733;28;20457;-78
2021/07/04 13:57:19;;;;;;;4.20;3.80;;;28.00;73.80;;;;;;6223907;28;20437;-78
2021/07/04 14:00:23;;;;;;;3.75;3.45;;;28.10;72.20;;;;;;6223135;28;20507;-78
2021/07/04 14:03:25;;;;;;;6.32;3.58;;;28.20;70.70;;;;;;6224742;28;20918;-78
2021/07/04 14:06:26;;;;;;;3.92;3.63;;;28.40;71.00;;;;;;6223142;28;20447;-78
2021/07/04 14:09:28;;;;;;;4.18;3.25;;;28.40;68.60;;;;;;6225399;28;20449;-78
2021/07/04 14:12:31;;;;;;;3.75;3.25;;;28.40;69.90;;;;;;6222780;28;20515;-77
2021/07/04 14:15:33;;;;;;;3.30;3.00;;;28.30;69.20;;;;;;6199279;28;20429;-77
2021/07/04 14:18:35;;;;;;;4.68;3.20;;;28.30;68.40;;;;;;6197213;28;20549;-77
2021/07/04 14:21:37;;;;;;;8.70;3.43;;;28.20;70.40;;;;;;6196930;28;20525;-77
2021/07/04 14:24:39;;;;;;;3.30;2.95;;;28.20;69.60;;;;;;6202822;28;20422;-77
2021/07/04 14:27:43;;;;;;;3.67;3.37;;;28.10;70.20;;;;;;6202163;28;20430;-76
2021/07/04 14:30:45;;;;;;;4.00;3.42;;;27.90;69.70;;;;;;6204756;28;20426;-77
2021/07/04 14:33:47;;;;;;;4.07;3.63;;;27.60;71.00;;;;;;6224207;28;20551;-76
2021/07/04 14:36:49;;;;;;;4.70;3.80;;;27.40;70.90;;;;;;6220768;28;20516;-77
2021/07/04 14:39:51;;;;;;;4.35;3.95;;;27.20;71.70;;;;;;6220565;28;20504;-78
2021/07/04 14:42:54;;;;;;;7.20;3.70;;;27.00;72.90;;;;;;6223395;28;20488;-77
2021/07/04 14:45:56;;;;;;;4.35;3.92;;;26.90;73.70;;;;;;6225106;28;20468;-76
2021/07/04 14:48:58;;;;;;;6.50;4.50;;;26.80;74.40;;;;;;6224606;28;20988;-77
2021/07/04 14:52:01;;;;;;;4.17;3.77;;;26.80;74.90;;;;;;6224969;28;20789;-77
2021/07/04 14:55:03;;;;;;;4.90;3.67;;;26.80;75.80;;;;;;6224897;28;20417;-77
2021/07/04 14:58:07;;;;;;;4.20;3.38;;;26.70;76.90;;;;;;6225082;28;20981;-77
2021/07/04 15:01:09;;;;;;;6.10;4.20;;;26.60;74.00;;;;;;6225896;28;20476;-76
2021/07/04 15:04:11;;;;;;;1.67;1.58;;;26.20;71.30;;;;;;6224465;28;20452;-76
2021/07/04 15:07:13;;;;;;;6.10;2.03;;;25.50;70.80;;;;;;6223157;28;20502;-74
2021/07/04 15:10:17;;;;;;;6.28;2.55;;;24.70;75.30;;;;;;6223693;28;20413;-74
2021/07/04 15:13:20;;;;;;;3.65;1.92;;;23.20;81.70;;;;;;6218815;28;20050;-77
2021/07/04 15:16:22;;;;;;;8.93;2.00;;;21.30;89.50;;;;;;6200940;28;20105;-77
2021/07/04 15:19:24;;;;;;;3.60;1.58;;;19.60;93.10;;;;;;6200925;28;20122;-76
2021/07/04 15:22:26;;;;;;;2.95;1.90;;;18.90;95.70;;;;;;6200710;28;20121;-77
2021/07/04 15:25:28;;;;;;;2.60;1.77;;;18.30;99.10;;;;;;6200756;28;20137;-77
2021/07/04 15:28:33;;;;;;;2.75;2.08;;;17.90;99.90;;;;;;6199732;28;20530;-77
2021/07/04 15:31:35;;;;;;;4.68;2.30;;;17.70;99.90;;;;;;6202278;28;20153;-76
2021/07/04 15:34:37;;;;;;;2.70;2.22;;;17.50;99.90;;;;;;6222707;28;20125;-76
2021/07/04 15:37:39;;;;;;;7.30;2.35;;;17.40;99.90;;;;;;6224289;28;20407;-76
2021/07/04 15:40:41;;;;;;;6.60;2.40;;;17.20;99.90;;;;;;6223882;28;20046;-76
2021/07/04 15:43:44;;;;;;;2.92;2.25;;;17.20;99.90;;;;;;6224150;28;20041;-76
2021/07/04 15:46:48;;;;;;;5.65;2.70;;;17.00;99.90;;;;;;6223902;28;20128;-76
2021/07/04 15:49:51;;;;;;;3.58;2.70;;;16.90;99.90;;;;;;6224709;28;20161;-76
2021/07/04 15:52:53;;;;;;;4.85;2.60;;;16.80;99.90;;;;;;6224263;28;20141;-76